KGSH/GSH METAR and TAF weather

Enter ICAO airport designator
Station Type Date Time Source
KGSH METAR 2020/11/28 19:53 UTC NOAA

KGSH 281953Z AUTO 23011KT 10SM CLR 07/M03 A3012 RMK AO2 SLP205 T00721028


Station Type Date Time Source
KGSH Decoded METAR 2020/11/28 19:53 UTC NOAA

GOSHEN MUNICIPAL AIRPORT, IN, United States (KGSH) 41-32N 85-47W 252M
Nov 28, 2020 - 02:53 PM EST / 2020.11.28 1953 UTC
Wind: from the SW (230 degrees) at 13 MPH (11 KT):0
Visibility: 10 mile(s):0
Sky conditions: clear
Temperature: 45.0 F (7.2 C)
Dew Point: 27.0 F (-2.8 C)
Relative Humidity: 48%
Pressure (altimeter): 30.12 in. Hg (1019 hPa)
ob: KGSH 281953Z AUTO 23011KT 10SM CLR 07/M03 A3012 RMK AO2 SLP205 T00721028
cycle: 20

Station Type Date Time Source
KGSH TAF UTC NOAA

Error!

Example: see airport list